createdAt,value
2023-10-29T00:00:26.351Z,15.03
2023-10-29T00:02:54.837Z,15.14
2023-10-29T00:05:23.237Z,15.04
2023-10-29T00:07:51.596Z,15.21
2023-10-29T00:10:20.339Z,15.11
2023-10-29T00:12:48.804Z,15.16
2023-10-29T00:15:17.652Z,15.20
2023-10-29T00:17:46.082Z,15.28
2023-10-29T00:20:14.322Z,15.20
2023-10-29T00:22:42.837Z,15.19
2023-10-29T00:25:11.250Z,15.26
2023-10-29T00:27:39.644Z,15.29
2023-10-29T00:30:08.542Z,15.32
2023-10-29T00:32:37.187Z,15.37
2023-10-29T00:35:06.111Z,15.13
2023-10-29T00:37:34.420Z,15.30
2023-10-29T00:40:03.588Z,15.31
2023-10-29T00:42:32.869Z,15.35
2023-10-29T00:45:01.278Z,15.38
2023-10-29T00:47:30.140Z,15.37
2023-10-29T00:49:58.496Z,15.39
2023-10-29T00:52:28.154Z,15.27
2023-10-29T00:54:56.988Z,15.36
2023-10-29T00:57:25.523Z,15.45
2023-10-29T00:59:54.066Z,15.38
2023-10-29T01:02:22.663Z,15.45
2023-10-29T01:04:50.981Z,15.45
2023-10-29T01:07:19.430Z,15.45
2023-10-29T01:09:47.769Z,15.51
2023-10-29T01:12:18.110Z,15.51
2023-10-29T01:14:46.900Z,15.44
2023-10-29T01:17:16.803Z,15.46
2023-10-29T01:19:45.050Z,15.54
2023-10-29T01:22:13.566Z,15.49
2023-10-29T01:24:42.089Z,15.36
2023-10-29T01:27:11.440Z,15.50
2023-10-29T01:29:39.753Z,15.43
2023-10-29T01:32:08.293Z,15.60
2023-10-29T01:34:36.580Z,15.58
2023-10-29T01:37:05.275Z,15.53
2023-10-29T01:39:33.625Z,15.46
2023-10-29T01:42:02.258Z,15.66
2023-10-29T01:44:30.626Z,15.68
2023-10-29T01:46:58.949Z,15.73
2023-10-29T01:49:27.240Z,15.54
2023-10-29T01:51:55.642Z,15.57
2023-10-29T01:54:24.280Z,15.60
2023-10-29T01:56:53.164Z,15.59
2023-10-29T01:59:21.736Z,15.64
2023-10-29T02:01:51.670Z,15.61
2023-10-29T02:04:21.990Z,15.74
2023-10-29T02:06:50.252Z,15.62
2023-10-29T02:09:19.776Z,15.60
2023-10-29T02:11:48.184Z,15.58
2023-10-29T02:14:16.586Z,15.79
2023-10-29T02:16:44.985Z,15.83
2023-10-29T02:19:13.388Z,15.72
2023-10-29T02:21:41.953Z,15.83
2023-10-29T02:24:10.575Z,15.83
2023-10-29T02:26:38.929Z,15.80
2023-10-29T02:29:07.746Z,15.59
2023-10-29T02:31:36.013Z,15.72
2023-10-29T02:34:04.273Z,15.54
2023-10-29T02:36:32.710Z,15.82
2023-10-29T02:39:00.938Z,15.79
2023-10-29T02:41:29.250Z,15.78
2023-10-29T02:43:59.413Z,15.75
2023-10-29T02:46:27.811Z,15.62
2023-10-29T02:48:56.139Z,15.68
2023-10-29T02:51:24.535Z,15.83
2023-10-29T02:53:52.849Z,15.73
2023-10-29T02:56:21.136Z,15.87
2023-10-29T02:58:49.480Z,15.83
2023-10-29T03:01:18.062Z,15.75
2023-10-29T03:03:46.823Z,15.73
2023-10-29T03:06:15.715Z,15.81
2023-10-29T03:08:45.588Z,15.68
2023-10-29T03:11:14.073Z,15.75
2023-10-29T03:13:42.472Z,15.78
2023-10-29T03:16:10.845Z,15.63
2023-10-29T03:18:39.422Z,15.70
2023-10-29T03:21:08.112Z,15.64
2023-10-29T03:23:36.360Z,15.94
2023-10-29T03:26:05.029Z,15.88
2023-10-29T03:28:33.583Z,15.96
2023-10-29T03:31:02.352Z,15.75
2023-10-29T03:33:30.751Z,15.90
2023-10-29T03:36:05.497Z,15.75
2023-10-29T03:38:34.363Z,15.72
2023-10-29T03:41:03.420Z,15.84
2023-10-29T03:43:32.979Z,15.72
2023-10-29T03:46:01.565Z,15.88
2023-10-29T03:48:29.862Z,15.87
2023-10-29T03:51:03.342Z,15.71
2023-10-29T03:53:31.872Z,15.85
2023-10-29T03:56:01.963Z,16.03
2023-10-29T03:58:33.003Z,16.08
2023-10-29T04:01:02.863Z,16.08
2023-10-29T04:03:31.533Z,16.12
2023-10-29T04:05:59.893Z,16.20
2023-10-29T04:08:29.162Z,16.14
2023-10-29T04:10:57.667Z,16.09
2023-10-29T04:13:26.152Z,16.13
2023-10-29T04:15:54.408Z,16.20
2023-10-29T04:18:25.866Z,16.32
2023-10-29T04:20:55.306Z,16.15
2023-10-29T04:23:23.789Z,16.15
2023-10-29T04:25:52.032Z,16.05
2023-10-29T04:28:20.527Z,16.31
2023-10-29T04:30:51.444Z,16.19
2023-10-29T04:33:19.942Z,16.14
2023-10-29T04:35:48.369Z,16.32
2023-10-29T04:38:16.678Z,16.19
2023-10-29T04:40:45.387Z,16.41
2023-10-29T04:43:14.048Z,16.39
2023-10-29T04:45:42.284Z,16.11
2023-10-29T04:48:11.169Z,16.30
2023-10-29T04:50:40.887Z,16.44
2023-10-29T04:53:09.291Z,16.30
2023-10-29T04:55:37.837Z,16.37
2023-10-29T04:58:07.390Z,16.60
2023-10-29T05:00:35.769Z,16.63
2023-10-29T05:03:04.141Z,16.74
2023-10-29T05:05:32.616Z,16.73
2023-10-29T05:08:01.248Z,16.48
2023-10-29T05:10:29.803Z,16.56
2023-10-29T05:12:58.017Z,16.65
2023-10-29T05:15:26.545Z,16.41
2023-10-29T05:17:54.927Z,16.50
2023-10-29T05:20:23.681Z,16.69
2023-10-29T05:22:52.052Z,16.64
2023-10-29T05:25:20.491Z,16.52
2023-10-29T05:27:56.720Z,16.59
2023-10-29T05:30:25.166Z,16.46
2023-10-29T05:32:53.983Z,16.45
2023-10-29T05:35:22.299Z,16.51
2023-10-29T05:37:50.697Z,16.56
2023-10-29T05:40:19.085Z,16.61
2023-10-29T05:42:47.389Z,16.62
2023-10-29T05:45:15.835Z,16.84
2023-10-29T05:47:44.318Z,16.61
2023-10-29T05:50:12.698Z,16.44
2023-10-29T05:52:41.171Z,16.67
2023-10-29T05:55:09.485Z,16.75
2023-10-29T05:57:37.768Z,16.46
2023-10-29T06:00:06.952Z,16.62
2023-10-29T06:02:40.443Z,16.45
2023-10-29T06:05:09.077Z,16.33
2023-10-29T06:07:38.283Z,16.54
2023-10-29T06:10:07.263Z,16.60
2023-10-29T06:12:36.743Z,16.41
2023-10-29T06:15:05.742Z,16.48
2023-10-29T06:17:34.786Z,16.16
2023-10-29T06:20:06.025Z,16.45
2023-10-29T06:22:34.668Z,16.56
2023-10-29T06:25:06.780Z,16.82
2023-10-29T06:27:36.031Z,16.87
2023-10-29T06:30:05.503Z,16.63
2023-10-29T06:32:37.064Z,16.61
2023-10-29T06:35:07.264Z,16.60
2023-10-29T06:37:35.681Z,16.56
2023-10-29T06:40:13.315Z,16.75
2023-10-29T06:42:44.351Z,17.02
2023-10-29T06:45:31.488Z,16.89
2023-10-29T06:48:00.959Z,16.68
2023-10-29T06:50:31.378Z,16.91
2023-10-29T06:53:08.796Z,16.69
2023-10-29T06:55:41.202Z,16.73
2023-10-29T06:58:09.619Z,16.92
2023-10-29T07:00:38.244Z,16.92
2023-10-29T07:03:06.763Z,16.88
2023-10-29T07:05:36.107Z,16.88
2023-10-29T07:08:04.593Z,17.02
2023-10-29T07:10:32.909Z,16.88
2023-10-29T07:13:01.148Z,16.97
2023-10-29T07:15:29.416Z,16.97
2023-10-29T07:17:57.918Z,16.91
2023-10-29T07:20:26.243Z,16.93
2023-10-29T07:22:58.185Z,16.90
2023-10-29T07:25:26.495Z,17.09
2023-10-29T07:27:54.768Z,16.88
2023-10-29T07:30:23.105Z,17.00
2023-10-29T07:32:52.071Z,16.83
2023-10-29T07:35:23.608Z,17.08
2023-10-29T07:37:55.155Z,16.89
2023-10-29T07:40:23.403Z,16.90
2023-10-29T07:42:58.389Z,16.83
2023-10-29T07:45:29.958Z,17.08
2023-10-29T07:47:58.435Z,16.89
2023-10-29T07:50:27.903Z,17.08
2023-10-29T07:52:56.848Z,17.22
2023-10-29T07:55:26.139Z,17.15
2023-10-29T07:57:54.497Z,17.10
2023-10-29T08:00:22.770Z,17.08
2023-10-29T08:02:51.860Z,17.22
2023-10-29T08:05:21.412Z,16.90
2023-10-29T08:07:49.772Z,16.88
2023-10-29T08:10:18.114Z,16.86
2023-10-29T08:12:46.494Z,17.09
2023-10-29T08:15:15.284Z,17.16
2023-10-29T08:17:43.807Z,17.02
2023-10-29T08:20:12.823Z,17.02
2023-10-29T08:22:46.218Z,17.26
2023-10-29T08:25:14.755Z,17.31
2023-10-29T08:27:43.008Z,17.50
2023-10-29T08:30:12.252Z,17.56
2023-10-29T08:32:46.255Z,17.42
2023-10-29T08:35:22.366Z,17.50
2023-10-29T08:37:56.648Z,17.35
2023-10-29T08:40:29.469Z,17.37
2023-10-29T08:43:00.793Z,17.32
2023-10-29T08:45:54.084Z,17.38
2023-10-29T08:48:24.828Z,17.71
2023-10-29T08:50:58.713Z,18.00
2023-10-29T08:53:27.039Z,17.66
2023-10-29T08:55:55.609Z,18.03
2023-10-29T08:58:26.105Z,18.03
2023-10-29T09:00:58.660Z,18.32
2023-10-29T09:03:27.619Z,18.14
2023-10-29T09:06:05.140Z,18.14
2023-10-29T09:08:38.937Z,18.54
2023-10-29T09:11:16.584Z,17.87
2023-10-29T09:13:45.167Z,18.28
2023-10-29T09:16:14.489Z,18.32
2023-10-29T09:18:43.717Z,18.14
2023-10-29T09:21:12.578Z,18.22
2023-10-29T09:23:40.997Z,18.38
2023-10-29T09:26:09.394Z,18.41
2023-10-29T09:28:38.135Z,18.42
2023-10-29T09:31:06.372Z,18.29
2023-10-29T09:33:34.775Z,18.17
2023-10-29T09:36:04.204Z,17.51
2023-10-29T09:38:32.636Z,18.12
2023-10-29T09:41:01.023Z,18.23
2023-10-29T09:43:39.578Z,18.17
2023-10-29T09:46:08.238Z,17.88
2023-10-29T09:48:38.751Z,18.13
2023-10-29T09:51:07.985Z,17.84
2023-10-29T09:53:38.530Z,18.09
2023-10-29T09:56:10.296Z,17.98
2023-10-29T09:58:39.959Z,17.97
2023-10-29T10:01:09.366Z,17.82
2023-10-29T10:03:38.563Z,17.89
2023-10-29T10:06:08.450Z,18.28
2023-10-29T10:08:36.908Z,18.37
2023-10-29T10:11:06.479Z,19.02
2023-10-29T10:13:42.819Z,18.66
2023-10-29T10:16:16.427Z,18.49
2023-10-29T10:18:59.176Z,18.73
2023-10-29T10:21:45.002Z,18.47
2023-10-29T10:24:13.855Z,18.77
2023-10-29T10:26:43.457Z,18.48
2023-10-29T10:29:14.089Z,18.77
2023-10-29T10:31:42.987Z,18.48
2023-10-29T10:34:19.359Z,19.01
2023-10-29T10:36:54.261Z,19.11
2023-10-29T10:39:26.825Z,19.18
2023-10-29T10:44:24.600Z,18.84
2023-10-29T10:46:55.926Z,18.86
2023-10-29T10:49:25.734Z,19.36
2023-10-29T10:51:59.562Z,19.31
2023-10-29T10:54:28.279Z,19.45
2023-10-29T10:56:57.828Z,19.14
2023-10-29T10:59:26.448Z,19.21
2023-10-29T11:01:55.412Z,19.87
2023-10-29T11:04:27.711Z,19.72
2023-10-29T11:06:58.604Z,19.33
2023-10-29T11:09:29.054Z,19.34
2023-10-29T11:12:00.684Z,19.71
2023-10-29T11:14:29.142Z,20.04
2023-10-29T11:17:00.045Z,20.06
2023-10-29T11:19:48.020Z,19.64
2023-10-29T11:22:22.726Z,20.16
2023-10-29T11:25:09.966Z,21.06
2023-10-29T11:27:44.406Z,21.14
2023-10-29T11:30:18.907Z,21.60
2023-10-29T11:33:19.316Z,21.15
2023-10-29T11:35:48.219Z,21.24
2023-10-29T11:38:37.774Z,21.60
2023-10-29T11:41:37.631Z,21.29
2023-10-29T11:44:31.148Z,21.44
2023-10-29T11:47:04.153Z,21.14
2023-10-29T11:49:57.712Z,21.81
2023-10-29T11:52:41.928Z,21.41
2023-10-29T11:55:12.177Z,21.17
2023-10-29T11:57:48.581Z,22.11
2023-10-29T12:00:23.010Z,21.81
2023-10-29T12:03:23.468Z,21.97
2023-10-29T12:05:56.412Z,22.91
2023-10-29T12:08:26.726Z,22.26
2023-10-29T12:11:06.431Z,21.87
2023-10-29T12:13:44.761Z,21.50
2023-10-29T12:16:16.986Z,21.61
2023-10-29T12:18:51.535Z,22.22
2023-10-29T12:21:23.015Z,22.44
2023-10-29T12:23:52.371Z,22.60
2023-10-29T12:26:29.366Z,22.22
2023-10-29T12:29:03.438Z,21.88
2023-10-29T12:31:31.690Z,21.61
2023-10-29T12:34:02.052Z,21.15
2023-10-29T12:36:30.515Z,20.52
2023-10-29T12:38:59.423Z,20.57
2023-10-29T12:41:33.788Z,20.65
2023-10-29T12:44:03.672Z,20.69
2023-10-29T12:46:51.125Z,20.97
2023-10-29T12:49:26.961Z,20.74
2023-10-29T12:52:19.468Z,20.66
2023-10-29T12:54:48.050Z,20.41
2023-10-29T12:57:29.466Z,20.25
2023-10-29T12:59:57.779Z,20.27
2023-10-29T13:02:28.417Z,19.91
2023-10-29T13:05:03.091Z,20.05
2023-10-29T13:07:36.464Z,19.78
2023-10-29T13:10:08.352Z,19.83
2023-10-29T13:12:43.973Z,19.62
2023-10-29T13:15:13.593Z,19.77
2023-10-29T13:17:42.246Z,19.75
2023-10-29T13:20:12.971Z,19.98
2023-10-29T13:22:42.803Z,19.71
2023-10-29T13:25:15.977Z,19.97
2023-10-29T13:27:44.409Z,20.10
2023-10-29T13:30:13.271Z,20.07
2023-10-29T13:32:41.606Z,20.17
2023-10-29T13:35:10.213Z,19.98
2023-10-29T13:37:38.594Z,20.06
2023-10-29T13:40:07.944Z,19.86
2023-10-29T13:42:36.239Z,19.90
2023-10-29T13:45:05.356Z,20.14
2023-10-29T13:47:33.670Z,20.03
2023-10-29T13:50:06.329Z,19.48
2023-10-29T13:52:34.745Z,19.62
2023-10-29T13:55:07.534Z,19.40
2023-10-29T13:57:43.279Z,19.12
2023-10-29T14:00:13.851Z,18.97
2023-10-29T14:02:44.643Z,18.84
2023-10-29T14:05:15.772Z,18.65
2023-10-29T14:07:44.202Z,19.12
2023-10-29T14:10:12.453Z,18.73
2023-10-29T14:12:44.488Z,19.04
2023-10-29T14:15:21.621Z,19.06
2023-10-29T14:17:50.050Z,19.36
2023-10-29T14:20:18.402Z,19.07
2023-10-29T14:22:47.961Z,19.18
2023-10-29T14:25:18.783Z,19.21
2023-10-29T14:27:52.358Z,19.22
2023-10-29T14:30:20.764Z,18.86
2023-10-29T14:32:53.982Z,18.58
2023-10-29T14:35:22.374Z,18.27
2023-10-29T14:38:22.231Z,17.94
2023-10-29T14:41:01.074Z,17.81
2023-10-29T14:43:29.554Z,17.76
2023-10-29T14:46:04.414Z,17.64
2023-10-29T14:48:36.535Z,17.56
2023-10-29T14:51:09.348Z,17.69
2023-10-29T14:53:49.758Z,17.56
2023-10-29T14:56:22.761Z,17.49
2023-10-29T14:58:51.132Z,17.28
2023-10-29T15:01:19.593Z,17.66
2023-10-29T15:03:51.104Z,17.47
2023-10-29T15:06:22.279Z,17.81
2023-10-29T15:08:59.534Z,17.44
2023-10-29T15:11:38.568Z,17.80
2023-10-29T15:14:10.376Z,17.84
2023-10-29T15:16:39.547Z,17.89
2023-10-29T15:19:18.727Z,17.91
2023-10-29T15:21:57.672Z,17.69
2023-10-29T15:24:26.017Z,17.59
2023-10-29T15:27:03.930Z,17.53
2023-10-29T15:29:32.254Z,17.46
2023-10-29T15:32:18.593Z,17.63
2023-10-29T15:34:57.072Z,17.75
2023-10-29T15:37:37.151Z,17.50
2023-10-29T15:40:14.781Z,17.63
2023-10-29T15:42:45.732Z,17.65
2023-10-29T15:45:47.524Z,17.76
2023-10-29T15:48:25.210Z,17.62
2023-10-29T15:50:59.514Z,17.59
2023-10-29T15:53:30.918Z,17.58
2023-10-29T15:56:13.458Z,17.48
2023-10-29T15:58:52.180Z,17.61
2023-10-29T16:01:33.861Z,17.47
2023-10-29T16:04:24.091Z,17.34
2023-10-29T16:06:55.156Z,17.42
2023-10-29T16:09:31.894Z,17.24
2023-10-29T16:12:06.209Z,17.39
2023-10-29T16:14:44.292Z,17.36
2023-10-29T16:17:12.492Z,17.28
2023-10-29T16:19:40.721Z,17.36
2023-10-29T16:22:09.986Z,17.01
2023-10-29T16:24:39.409Z,17.08
2023-10-29T16:27:13.605Z,17.06
2023-10-29T16:29:41.985Z,16.87
2023-10-29T16:32:20.583Z,16.88
2023-10-29T16:34:59.062Z,16.75
2023-10-29T16:37:52.158Z,17.05
2023-10-29T16:40:23.666Z,17.07
2023-10-29T16:42:52.486Z,17.21
2023-10-29T16:45:24.229Z,16.66
2023-10-29T16:47:53.973Z,16.22
2023-10-29T16:50:25.687Z,16.39
2023-10-29T16:52:59.317Z,15.94
2023-10-29T16:55:36.969Z,16.08
2023-10-29T16:58:07.961Z,15.79
2023-10-29T17:00:38.141Z,16.25
2023-10-29T17:03:33.677Z,15.74
2023-10-29T17:06:09.228Z,15.89
2023-10-29T17:08:37.627Z,15.78
2023-10-29T17:11:31.657Z,15.68
2023-10-29T17:14:09.386Z,15.59
2023-10-29T17:16:37.788Z,15.80
2023-10-29T17:19:06.029Z,15.82
2023-10-29T17:21:46.637Z,15.51
2023-10-29T17:24:14.988Z,15.56
2023-10-29T17:26:49.731Z,15.73
2023-10-29T17:29:17.955Z,15.67
2023-10-29T17:31:49.479Z,15.81
2023-10-29T17:34:21.039Z,15.41
2023-10-29T17:36:50.123Z,15.72
2023-10-29T17:39:20.858Z,15.65
2023-10-29T17:41:49.797Z,-149.27
2023-10-29T17:44:18.020Z,-149.27
2023-10-29T17:46:46.409Z,-149.27
2023-10-29T17:49:20.621Z,15.58
2023-10-29T17:51:55.012Z,15.63
2023-10-29T17:54:24.865Z,15.90
2023-10-29T17:56:56.488Z,15.88
2023-10-29T17:59:26.613Z,15.76
2023-10-29T18:01:54.980Z,15.84
2023-10-29T18:04:23.752Z,15.63
2023-10-29T18:06:52.316Z,15.38
2023-10-29T18:09:20.730Z,15.62
2023-10-29T18:11:54.748Z,15.64
2023-10-29T18:14:23.499Z,15.55
2023-10-29T18:16:55.376Z,15.51
2023-10-29T18:19:23.671Z,15.67
2023-10-29T18:21:51.895Z,15.63
2023-10-29T18:24:22.561Z,15.65
2023-10-29T18:26:52.724Z,15.80
2023-10-29T18:29:31.602Z,15.50
2023-10-29T18:32:02.506Z,15.69
2023-10-29T18:34:58.417Z,15.83
2023-10-29T18:37:39.047Z,15.75
2023-10-29T18:40:10.685Z,15.72
2023-10-29T18:42:39.059Z,15.97
2023-10-29T18:45:10.693Z,15.83
2023-10-29T18:47:39.019Z,16.10
2023-10-29T18:50:07.831Z,16.01
2023-10-29T18:52:36.175Z,15.86
2023-10-29T18:55:07.942Z,15.73
2023-10-29T18:57:36.335Z,15.93
2023-10-29T19:00:05.749Z,15.89
2023-10-29T19:02:59.238Z,15.69
2023-10-29T19:05:27.834Z,15.73
2023-10-29T19:07:57.835Z,15.75
2023-10-29T19:10:30.602Z,15.67
2023-10-29T19:13:09.026Z,15.74
2023-10-29T19:15:37.327Z,15.97
2023-10-29T19:18:08.551Z,-149.27
2023-10-29T19:20:42.409Z,-149.27
2023-10-29T19:23:10.893Z,-149.27
2023-10-29T19:25:39.535Z,-149.27
2023-10-29T19:28:09.314Z,-149.27
2023-10-29T19:31:00.073Z,-149.27
2023-10-29T19:33:43.340Z,-149.27
2023-10-29T19:36:20.930Z,-149.27
2023-10-29T19:38:55.736Z,-149.27
2023-10-29T19:41:27.351Z,-149.27
2023-10-29T19:43:55.696Z,-149.27
2023-10-29T19:46:23.993Z,-149.27
2023-10-29T19:49:00.335Z,-149.27
2023-10-29T19:51:53.638Z,-149.27
2023-10-29T19:54:24.060Z,-149.27
2023-10-29T19:56:52.829Z,-149.27
2023-10-29T19:59:21.057Z,-149.27
2023-10-29T20:01:49.977Z,-149.27
2023-10-29T20:04:18.419Z,-149.27
2023-10-29T20:06:49.768Z,-149.27
2023-10-29T20:09:20.789Z,-149.27
2023-10-29T20:11:57.730Z,-149.27
2023-10-29T20:14:28.530Z,-149.27
2023-10-29T20:16:56.859Z,-149.27
2023-10-29T20:19:26.177Z,-149.27
2023-10-29T20:21:55.854Z,-149.27
2023-10-29T20:24:27.504Z,-149.27
2023-10-29T20:27:00.079Z,-149.27
2023-10-29T20:29:31.451Z,-149.27
2023-10-29T20:32:05.262Z,-149.27
2023-10-29T20:34:34.445Z,-149.27
2023-10-29T20:37:10.719Z,-149.27
2023-10-29T20:39:43.132Z,-149.27
2023-10-29T20:42:14.085Z,-149.27
2023-10-29T20:44:50.013Z,-149.27
2023-10-29T20:47:27.459Z,-149.27
2023-10-29T20:49:55.980Z,-149.27
2023-10-29T20:52:24.402Z,-149.27
2023-10-29T20:54:55.325Z,15.78
2023-10-29T20:57:23.851Z,15.71
2023-10-29T20:59:52.455Z,15.73
2023-10-29T21:02:20.779Z,15.48
2023-10-29T21:04:54.921Z,15.31
2023-10-29T21:07:32.128Z,15.56
2023-10-29T21:10:52.650Z,15.41
2023-10-29T21:13:21.071Z,15.71
2023-10-29T21:15:51.208Z,15.55
2023-10-29T21:18:20.020Z,15.42
2023-10-29T21:20:58.011Z,15.49
2023-10-29T21:23:35.266Z,15.65
2023-10-29T21:26:03.946Z,15.46
2023-10-29T21:28:42.271Z,15.45
2023-10-29T21:31:23.381Z,15.35
2023-10-29T21:33:52.865Z,15.73
2023-10-29T21:36:27.231Z,15.33
2023-10-29T21:38:55.787Z,15.49
2023-10-29T21:41:28.196Z,15.42
2023-10-29T21:44:01.648Z,15.29
2023-10-29T21:46:30.218Z,15.23
2023-10-29T21:48:58.848Z,15.21
2023-10-29T21:51:27.352Z,15.24
2023-10-29T21:53:56.676Z,15.20
2023-10-29T21:56:27.943Z,15.31
2023-10-29T21:58:56.620Z,15.46
2023-10-29T22:01:35.122Z,15.35
2023-10-29T22:04:09.426Z,15.21
2023-10-29T22:06:37.783Z,15.12
2023-10-29T22:09:06.086Z,15.37
2023-10-29T22:11:37.019Z,15.15
2023-10-29T22:14:07.074Z,15.23
2023-10-29T22:16:41.452Z,15.38
2023-10-29T22:19:19.529Z,15.57
2023-10-29T22:21:50.902Z,14.99
2023-10-29T22:24:21.943Z,15.16
2023-10-29T22:26:53.259Z,15.53
2023-10-29T22:29:23.072Z,15.48
2023-10-29T22:31:51.345Z,15.46
2023-10-29T22:34:48.133Z,15.20
2023-10-29T22:37:19.510Z,15.21
2023-10-29T22:39:49.556Z,15.33
2023-10-29T22:42:18.039Z,15.37
2023-10-29T22:44:48.197Z,14.84
2023-10-29T22:47:16.588Z,15.31
2023-10-29T22:49:47.845Z,15.18
2023-10-29T22:52:22.233Z,15.22
2023-10-29T22:54:50.623Z,15.15
2023-10-29T22:57:25.150Z,15.30
2023-10-29T22:59:53.562Z,15.27
2023-10-29T23:02:21.988Z,15.19
2023-10-29T23:04:55.240Z,15.33
2023-10-29T23:07:23.653Z,15.23
2023-10-29T23:09:51.893Z,15.41
2023-10-29T23:12:23.691Z,15.23
2023-10-29T23:14:52.895Z,15.04
2023-10-29T23:17:22.349Z,15.46
2023-10-29T23:20:06.559Z,15.21
2023-10-29T23:22:40.859Z,14.99
2023-10-29T23:25:14.577Z,15.11
2023-10-29T23:27:45.347Z,15.44
2023-10-29T23:30:13.776Z,15.31
2023-10-29T23:32:47.625Z,15.28
2023-10-29T23:35:20.860Z,15.37
2023-10-29T23:37:49.247Z,15.32
2023-10-29T23:40:21.684Z,15.34
2023-10-29T23:42:49.925Z,15.52
2023-10-29T23:45:20.889Z,15.32
2023-10-29T23:47:48.762Z,15.48
2023-10-29T23:50:22.920Z,15.14
2023-10-29T23:52:51.732Z,15.26
2023-10-29T23:55:20.173Z,15.51
2023-10-29T23:57:51.152Z,15.42
